sensor_id;sensor_type;location;lat;lon;timestamp;pressure;altitude;pressure_sealevel;temperature;humidity
45345;BME280;31078;48.304;11.896;2023-08-08T00:00:35;73957.00;;;-145.00;61.33
45345;BME280;31078;48.304;11.896;2023-08-08T00:03:01;73952.84;;;-145.00;60.86
45345;BME280;31078;48.304;11.896;2023-08-08T00:05:27;73942.44;;;-145.00;60.93
45345;BME280;31078;48.304;11.896;2023-08-08T00:07:54;73963.25;;;-145.00;61.24
45345;BME280;31078;48.304;11.896;2023-08-08T00:10:20;73963.25;;;-145.00;61.57
45345;BME280;31078;48.304;11.896;2023-08-08T00:12:48;73950.75;;;-145.00;60.90
45345;BME280;31078;48.304;11.896;2023-08-08T00:15:15;73942.44;;;-145.00;60.80
45345;BME280;31078;48.304;11.896;2023-08-08T00:17:41;73942.44;;;-145.00;60.69
45345;BME280;31078;48.304;11.896;2023-08-08T00:20:09;73975.75;;;-145.00;61.09
45345;BME280;31078;48.304;11.896;2023-08-08T00:22:36;73971.56;;;-145.00;61.20
45345;BME280;31078;48.304;11.896;2023-08-08T00:25:03;73971.56;;;-145.00;60.96
45345;BME280;31078;48.304;11.896;2023-08-08T00:27:29;73975.75;;;-145.00;61.89
45345;BME280;31078;48.304;11.896;2023-08-08T00:29:57;73967.41;;;-145.00;61.12
45345;BME280;31078;48.304;11.896;2023-08-08T00:32:24;73959.09;;;-145.00;60.99
45345;BME280;31078;48.304;11.896;2023-08-08T00:34:50;73948.69;;;-145.00;61.08
45345;BME280;31078;48.304;11.896;2023-08-08T00:37:16;73946.59;;;-145.00;60.58
45345;BME280;31078;48.304;11.896;2023-08-08T00:39:43;73944.50;;;-145.00;60.48
45345;BME280;31078;48.304;11.896;2023-08-08T00:42:11;73923.69;;;-145.00;59.87
45345;BME280;31078;48.304;11.896;2023-08-08T00:44:37;73934.09;;;-145.00;60.16
45345;BME280;31078;48.304;11.896;2023-08-08T00:47:07;73917.44;;;-145.00;59.80
45345;BME280;31078;48.304;11.896;2023-08-08T00:49:33;73913.28;;;-145.00;59.98
45345;BME280;31078;48.304;11.896;2023-08-08T00:52:00;73898.69;;;-145.00;59.69
45345;BME280;31078;48.304;11.896;2023-08-08T00:54:27;73888.28;;;-145.00;59.38
45345;BME280;31078;48.304;11.896;2023-08-08T00:56:54;73871.63;;;-145.00;59.28
45345;BME280;31078;48.304;11.896;2023-08-08T00:59:20;73879.97;;;-145.00;59.17
45345;BME280;31078;48.304;11.896;2023-08-08T01:01:47;73884.13;;;-145.00;59.31
45345;BME280;31078;48.304;11.896;2023-08-08T01:04:16;73871.63;;;-145.00;59.23
45345;BME280;31078;48.304;11.896;2023-08-08T01:06:48;73890.38;;;-145.00;59.19
45345;BME280;31078;48.304;11.896;2023-08-08T01:09:21;73892.44;;;-145.00;59.51
45345;BME280;31078;48.304;11.896;2023-08-08T01:11:51;73890.38;;;-145.00;59.89
45345;BME280;31078;48.304;11.896;2023-08-08T01:14:19;73879.97;;;-145.00;59.60
45345;BME280;31078;48.304;11.896;2023-08-08T01:16:49;73859.13;;;-145.00;58.96
45345;BME280;31078;48.304;11.896;2023-08-08T01:19:23;73846.63;;;-145.00;59.04
45345;BME280;31078;48.304;11.896;2023-08-08T01:21:52;73840.41;;;-145.00;58.56
45345;BME280;31078;48.304;11.896;2023-08-08T01:24:22;73842.47;;;-145.00;58.56
45345;BME280;31078;48.304;11.896;2023-08-08T01:26:49;73825.81;;;-145.00;57.91
45345;BME280;31078;48.304;11.896;2023-08-08T01:29:15;73823.72;;;-145.00;57.93
45345;BME280;31078;48.304;11.896;2023-08-08T01:31:42;73854.97;;;-145.00;58.50
45345;BME280;31078;48.304;11.896;2023-08-08T01:34:08;73863.28;;;-145.00;58.88
45345;BME280;31078;48.304;11.896;2023-08-08T01:36:39;73904.94;;;-145.00;60.06
45345;BME280;31078;48.304;11.896;2023-08-08T01:39:09;73877.88;;;-145.00;59.37
45345;BME280;31078;48.304;11.896;2023-08-08T01:41:39;73882.03;;;-145.00;59.16
45345;BME280;31078;48.304;11.896;2023-08-08T01:44:08;73900.78;;;-145.00;60.14
45345;BME280;31078;48.304;11.896;2023-08-08T01:46:35;73896.63;;;-145.00;60.10
45345;BME280;31078;48.304;11.896;2023-08-08T01:49:03;73871.63;;;-145.00;59.10
45345;BME280;31078;48.304;11.896;2023-08-08T01:51:30;73848.72;;;-145.00;58.67
45345;BME280;31078;48.304;11.896;2023-08-08T01:53:56;73846.63;;;-145.00;58.86
45345;BME280;31078;48.304;11.896;2023-08-08T01:56:23;73859.13;;;-145.00;59.05
45345;BME280;31078;48.304;11.896;2023-08-08T01:58:50;73867.47;;;-145.00;58.96
45345;BME280;31078;48.304;11.896;2023-08-08T02:01:17;73904.94;;;-145.00;59.63
45345;BME280;31078;48.304;11.896;2023-08-08T02:03:43;73913.28;;;-145.00;59.80
45345;BME280;31078;48.304;11.896;2023-08-08T02:06:10;73913.28;;;-145.00;60.16
45345;BME280;31078;48.304;11.896;2023-08-08T02:08:36;73871.63;;;-145.00;59.27
45345;BME280;31078;48.304;11.896;2023-08-08T02:11:03;73869.53;;;-145.00;58.99
45345;BME280;31078;48.304;11.896;2023-08-08T02:13:29;73857.06;;;-145.00;58.69
45345;BME280;31078;48.304;11.896;2023-08-08T02:15:57;73863.28;;;-145.00;58.64
45345;BME280;31078;48.304;11.896;2023-08-08T02:18:24;73848.72;;;-145.00;58.35
45345;BME280;31078;48.304;11.896;2023-08-08T02:20:50;73842.47;;;-145.00;58.24
45345;BME280;31078;48.304;11.896;2023-08-08T02:23:16;73875.78;;;-145.00;58.55
45345;BME280;31078;48.304;11.896;2023-08-08T02:25:44;73888.28;;;-145.00;58.99
45345;BME280;31078;48.304;11.896;2023-08-08T02:28:10;73884.13;;;-145.00;58.97
45345;BME280;31078;48.304;11.896;2023-08-08T02:30:37;73863.28;;;-145.00;58.72
45345;BME280;31078;48.304;11.896;2023-08-08T02:33:05;73842.47;;;-145.00;58.54
45345;BME280;31078;48.304;11.896;2023-08-08T02:35:31;73838.31;;;-145.00;58.33
45345;BME280;31078;48.304;11.896;2023-08-08T02:37:58;73852.88;;;-145.00;58.38
45345;BME280;31078;48.304;11.896;2023-08-08T02:40:24;73844.56;;;-145.00;58.33
45345;BME280;31078;48.304;11.896;2023-08-08T02:42:52;73838.31;;;-145.00;58.19
45345;BME280;31078;48.304;11.896;2023-08-08T02:45:18;73850.81;;;-145.00;58.08
45345;BME280;31078;48.304;11.896;2023-08-08T02:47:45;73888.28;;;-145.00;58.91
45345;BME280;31078;48.304;11.896;2023-08-08T02:50:12;73892.44;;;-145.00;59.02
45345;BME280;31078;48.304;11.896;2023-08-08T02:52:39;73900.78;;;-145.00;58.93
45345;BME280;31078;48.304;11.896;2023-08-08T02:55:07;73884.13;;;-145.00;58.69
45345;BME280;31078;48.304;11.896;2023-08-08T02:57:33;73879.97;;;-145.00;58.58
45345;BME280;31078;48.304;11.896;2023-08-08T03:00:00;73879.97;;;-145.00;58.62
45345;BME280;31078;48.304;11.896;2023-08-08T03:02:26;73913.28;;;-145.00;59.14
45345;BME280;31078;48.304;11.896;2023-08-08T03:04:53;73938.25;;;-145.00;59.82
45345;BME280;31078;48.304;11.896;2023-08-08T03:07:20;73936.19;;;-145.00;59.71
45345;BME280;31078;48.304;11.896;2023-08-08T03:09:47;73938.25;;;-145.00;59.91
45345;BME280;31078;48.304;11.896;2023-08-08T03:12:13;73952.84;;;-145.00;60.37
45345;BME280;31078;48.304;11.896;2023-08-08T03:14:40;73971.56;;;-145.00;60.79
45345;BME280;31078;48.304;11.896;2023-08-08T03:17:06;73996.56;;;-145.00;61.71
45345;BME280;31078;48.304;11.896;2023-08-08T03:19:33;73973.66;;;-145.00;60.80
45345;BME280;31078;48.304;11.896;2023-08-08T03:21:59;73996.56;;;-145.00;61.47
45345;BME280;31078;48.304;11.896;2023-08-08T03:24:27;73986.16;;;-145.00;61.28
45345;BME280;31078;48.304;11.896;2023-08-08T03:26:54;73965.34;;;-145.00;60.79
45345;BME280;31078;48.304;11.896;2023-08-08T03:29:20;73963.25;;;-145.00;60.81
45345;BME280;31078;48.304;11.896;2023-08-08T03:31:47;73977.81;;;-145.00;60.91
45345;BME280;31078;48.304;11.896;2023-08-08T03:34:13;73929.94;;;-145.00;59.97
45345;BME280;31078;48.304;11.896;2023-08-08T03:36:40;73917.44;;;-145.00;59.89
45345;BME280;31078;48.304;11.896;2023-08-08T03:39:07;73911.19;;;-145.00;59.60
45345;BME280;31078;48.304;11.896;2023-08-08T03:41:35;73938.25;;;-145.00;59.89
45345;BME280;31078;48.304;11.896;2023-08-08T03:44:02;73954.91;;;-145.00;60.66
45345;BME280;31078;48.304;11.896;2023-08-08T03:46:29;73963.25;;;-145.00;60.32
45345;BME280;31078;48.304;11.896;2023-08-08T03:48:55;73979.91;;;-145.00;61.12
45345;BME280;31078;48.304;11.896;2023-08-08T03:51:22;73971.56;;;-145.00;61.05
45345;BME280;31078;48.304;11.896;2023-08-08T03:53:49;73971.56;;;-145.00;61.02
45345;BME280;31078;48.304;11.896;2023-08-08T03:56:15;73996.56;;;-145.00;61.43
45345;BME280;31078;48.304;11.896;2023-08-08T03:58:43;73992.41;;;-145.00;61.57
45345;BME280;31078;48.304;11.896;2023-08-08T04:01:09;73988.25;;;-145.00;61.44
45345;BME280;31078;48.304;11.896;2023-08-08T04:03:36;73967.41;;;-145.00;60.67
45345;BME280;31078;48.304;11.896;2023-08-08T04:06:03;73979.91;;;-145.00;60.96
45345;BME280;31078;48.304;11.896;2023-08-08T04:08:29;73984.06;;;-145.00;61.36
45345;BME280;31078;48.304;11.896;2023-08-08T04:10:56;73998.66;;;-145.00;61.63
45345;BME280;31078;48.304;11.896;2023-08-08T04:13:22;73967.41;;;-145.00;60.84
45345;BME280;31078;48.304;11.896;2023-08-08T04:15:50;74000.72;;;-145.00;61.50
45345;BME280;31078;48.304;11.896;2023-08-08T04:18:17;73984.06;;;-145.00;61.45
45345;BME280;31078;48.304;11.896;2023-08-08T04:20:52;73986.16;;;-145.00;61.34
45345;BME280;31078;48.304;11.896;2023-08-08T04:23:19;73975.75;;;-145.00;61.77
45345;BME280;31078;48.304;11.896;2023-08-08T04:25:45;73973.66;;;-145.00;61.61
45345;BME280;31078;48.304;11.896;2023-08-08T04:28:11;73952.84;;;-145.00;60.61
45345;BME280;31078;48.304;11.896;2023-08-08T04:30:38;73957.00;;;-145.00;61.23
45345;BME280;31078;48.304;11.896;2023-08-08T04:33:06;73967.41;;;-145.00;60.75
45345;BME280;31078;48.304;11.896;2023-08-08T04:35:32;73971.56;;;-145.00;61.15
45345;BME280;31078;48.304;11.896;2023-08-08T04:37:59;73946.59;;;-145.00;60.40
45345;BME280;31078;48.304;11.896;2023-08-08T04:40:25;73967.41;;;-145.00;61.02
45345;BME280;31078;48.304;11.896;2023-08-08T04:42:52;73929.94;;;-145.00;59.86
45345;BME280;31078;48.304;11.896;2023-08-08T04:45:18;73925.75;;;-145.00;60.17
45345;BME280;31078;48.304;11.896;2023-08-08T04:47:46;73900.78;;;-145.00;59.56
45345;BME280;31078;48.304;11.896;2023-08-08T04:50:14;73890.38;;;-145.00;58.67
45345;BME280;31078;48.304;11.896;2023-08-08T04:52:40;73932.00;;;-145.00;59.39
45345;BME280;31078;48.304;11.896;2023-08-08T04:55:07;73946.59;;;-145.00;60.29
45345;BME280;31078;48.304;11.896;2023-08-08T04:57:34;73919.53;;;-145.00;60.00
45345;BME280;31078;48.304;11.896;2023-08-08T05:00:00;73929.94;;;-145.00;59.77
45345;BME280;31078;48.304;11.896;2023-08-08T05:02:30;73925.75;;;-145.00;60.03
45345;BME280;31078;48.304;11.896;2023-08-08T05:04:57;73925.75;;;-145.00;60.15
45345;BME280;31078;48.304;11.896;2023-08-08T05:07:24;73936.19;;;-145.00;60.50
45345;BME280;31078;48.304;11.896;2023-08-08T05:09:51;73909.09;;;-145.00;59.89
45345;BME280;31078;48.304;11.896;2023-08-08T05:12:17;73913.28;;;-145.00;59.64
45345;BME280;31078;48.304;11.896;2023-08-08T05:14:44;73913.28;;;-145.00;60.06
45345;BME280;31078;48.304;11.896;2023-08-08T05:17:10;73917.44;;;-145.00;59.97
45345;BME280;31078;48.304;11.896;2023-08-08T05:19:37;73898.69;;;-145.00;59.54
45345;BME280;31078;48.304;11.896;2023-08-08T05:22:04;73879.97;;;-145.00;59.95
45345;BME280;31078;48.304;11.896;2023-08-08T05:24:32;73886.19;;;-145.00;59.52
45345;BME280;31078;48.304;11.896;2023-08-08T05:26:58;73898.69;;;-145.00;60.32
45345;BME280;31078;48.304;11.896;2023-08-08T05:29:25;73888.28;;;-145.00;60.70
45345;BME280;31078;48.304;11.896;2023-08-08T05:31:51;73867.47;;;-145.00;59.24
45345;BME280;31078;48.304;11.896;2023-08-08T05:34:18;73865.38;;;-145.00;59.42
45345;BME280;31078;48.304;11.896;2023-08-08T05:36:44;73867.47;;;-145.00;59.40
45345;BME280;31078;48.304;11.896;2023-08-08T05:39:11;73865.38;;;-145.00;59.06
45345;BME280;31078;48.304;11.896;2023-08-08T05:41:38;73859.13;;;-145.00;59.55
45345;BME280;31078;48.304;11.896;2023-08-08T05:44:05;73861.22;;;-145.00;59.02
45345;BME280;31078;48.304;11.896;2023-08-08T05:46:31;73871.63;;;-145.00;59.65
45345;BME280;31078;48.304;11.896;2023-08-08T05:48:58;73859.13;;;-145.00;59.63
45345;BME280;31078;48.304;11.896;2023-08-08T05:51:26;73813.31;;;-145.00;58.27
45345;BME280;31078;48.304;11.896;2023-08-08T05:53:52;73823.72;;;-145.00;57.73
45345;BME280;31078;48.304;11.896;2023-08-08T05:56:19;73823.72;;;-145.00;58.38
45345;BME280;31078;48.304;11.896;2023-08-08T05:58:47;73813.31;;;-145.00;58.64
45345;BME280;31078;48.304;11.896;2023-08-08T06:01:13;73817.50;;;-145.00;58.11
45345;BME280;31078;48.304;11.896;2023-08-08T06:03:40;73792.50;;;-145.00;57.95
45345;BME280;31078;48.304;11.896;2023-08-08T06:06:07;73792.50;;;-145.00;58.19
45345;BME280;31078;48.304;11.896;2023-08-08T06:08:34;73792.50;;;-145.00;58.21
45345;BME280;31078;48.304;11.896;2023-08-08T06:11:00;73784.16;;;-145.00;58.17
45345;BME280;31078;48.304;11.896;2023-08-08T06:13:27;73792.50;;;-145.00;58.45
45345;BME280;31078;48.304;11.896;2023-08-08T06:15:55;73771.69;;;-145.00;58.38
45345;BME280;31078;48.304;11.896;2023-08-08T06:18:21;73796.66;;;-145.00;58.54
45345;BME280;31078;48.304;11.896;2023-08-08T06:20:48;73788.34;;;-145.00;58.33
45345;BME280;31078;48.304;11.896;2023-08-08T06:23:14;73796.66;;;-145.00;58.48
45345;BME280;31078;48.304;11.896;2023-08-08T06:25:41;73782.09;;;-145.00;58.04
45345;BME280;31078;48.304;11.896;2023-08-08T06:28:07;73782.09;;;-145.00;57.98
45345;BME280;31078;48.304;11.896;2023-08-08T06:30:33;73771.69;;;-145.00;57.07
45345;BME280;31078;48.304;11.896;2023-08-08T06:33:01;73780.00;;;-145.00;57.82
45345;BME280;31078;48.304;11.896;2023-08-08T06:35:28;73750.84;;;-145.00;57.51
45345;BME280;31078;48.304;11.896;2023-08-08T06:37:54;73755.03;;;-145.00;57.41
45345;BME280;31078;48.304;11.896;2023-08-08T06:40:21;73734.19;;;-145.00;58.00
45345;BME280;31078;48.304;11.896;2023-08-08T06:42:48;73721.69;;;-145.00;56.30
45345;BME280;31078;48.304;11.896;2023-08-08T06:45:15;73713.38;;;-145.00;56.50
45345;BME280;31078;48.304;11.896;2023-08-08T06:47:42;73692.56;;;-145.00;56.38
45345;BME280;31078;48.304;11.896;2023-08-08T06:50:10;73692.56;;;-145.00;56.41
45345;BME280;31078;48.304;11.896;2023-08-08T06:52:36;73700.88;;;-145.00;56.38
45345;BME280;31078;48.304;11.896;2023-08-08T06:55:03;73688.38;;;-145.00;56.13
45345;BME280;31078;48.304;11.896;2023-08-08T06:57:32;73684.22;;;-145.00;56.47
45345;BME280;31078;48.304;11.896;2023-08-08T06:59:59;73671.72;;;-145.00;55.78
45345;BME280;31078;48.304;11.896;2023-08-08T07:02:26;73663.41;;;-145.00;55.65
45345;BME280;31078;48.304;11.896;2023-08-08T07:04:52;73617.59;;;-145.00;55.04
45345;BME280;31078;48.304;11.896;2023-08-08T07:07:20;73598.84;;;-145.00;54.10
45345;BME280;31078;48.304;11.896;2023-08-08T07:09:47;73567.63;;;-145.00;53.89
45345;BME280;31078;48.304;11.896;2023-08-08T07:12:14;73534.31;;;-145.00;53.69
45345;BME280;31078;48.304;11.896;2023-08-08T07:14:40;73532.22;;;-145.00;53.27
45345;BME280;31078;48.304;11.896;2023-08-08T07:17:07;73559.28;;;-145.00;55.01
45345;BME280;31078;48.304;11.896;2023-08-08T07:19:33;73538.47;;;-145.00;53.15
45345;BME280;31078;48.304;11.896;2023-08-08T07:22:00;73505.16;;;-145.00;52.91
45345;BME280;31078;48.304;11.896;2023-08-08T07:24:28;73473.94;;;-145.00;52.70
45345;BME280;31078;48.304;11.896;2023-08-08T07:26:54;73467.69;;;-145.00;53.23
45345;BME280;31078;48.304;11.896;2023-08-08T07:29:22;73467.69;;;-145.00;50.81
45345;BME280;31078;48.304;11.896;2023-08-08T07:31:48;73451.03;;;-145.00;51.29
45345;BME280;31078;48.304;11.896;2023-08-08T07:34:15;73428.13;;;-145.00;49.93
45345;BME280;31078;48.304;11.896;2023-08-08T07:36:41;73421.88;;;-145.00;50.46
45345;BME280;31078;48.304;11.896;2023-08-08T07:39:08;73396.88;;;-145.00;50.77
45345;BME280;31078;48.304;11.896;2023-08-08T07:41:36;73380.22;;;-145.00;50.95
45345;BME280;31078;48.304;11.896;2023-08-08T07:44:03;73363.56;;;-145.00;49.41
45345;BME280;31078;48.304;11.896;2023-08-08T07:46:29;73351.09;;;-145.00;49.05
45345;BME280;31078;48.304;11.896;2023-08-08T07:48:56;73263.63;;;-145.00;48.27
45345;BME280;31078;48.304;11.896;2023-08-08T07:51:24;73190.78;;;-145.00;46.98
45345;BME280;31078;48.304;11.896;2023-08-08T07:53:51;73178.28;;;-145.00;45.63
45345;BME280;31078;48.304;11.896;2023-08-08T07:56:17;73180.34;;;-145.00;46.00
45345;BME280;31078;48.304;11.896;2023-08-08T07:58:45;73117.91;;;-145.00;45.25
45345;BME280;31078;48.304;11.896;2023-08-08T08:01:11;73097.09;;;-145.00;43.72
45345;BME280;31078;48.304;11.896;2023-08-08T08:03:38;73138.72;;;-145.00;43.86
45345;BME280;31078;48.304;11.896;2023-08-08T08:06:05;73167.88;;;-145.00;44.30
45345;BME280;31078;48.304;11.896;2023-08-08T08:08:32;73155.38;;;-145.00;43.79
45345;BME280;31078;48.304;11.896;2023-08-08T08:10:58;73155.38;;;-145.00;45.30
45345;BME280;31078;48.304;11.896;2023-08-08T08:13:25;73109.56;;;-145.00;45.09
45345;BME280;31078;48.304;11.896;2023-08-08T08:15:53;73076.25;;;-145.00;43.61
45345;BME280;31078;48.304;11.896;2023-08-08T08:18:19;73047.13;;;-145.00;43.38
45345;BME280;31078;48.304;11.896;2023-08-08T08:20:46;72980.50;;;-145.00;42.25
45345;BME280;31078;48.304;11.896;2023-08-08T08:23:12;73017.97;;;-145.00;42.54
45345;BME280;31078;48.304;11.896;2023-08-08T08:25:39;73076.25;;;-145.00;44.21
45345;BME280;31078;48.304;11.896;2023-08-08T08:28:06;72980.50;;;-145.00;42.44
45345;BME280;31078;48.304;11.896;2023-08-08T08:30:33;73034.63;;;-145.00;42.00
45345;BME280;31078;48.304;11.896;2023-08-08T08:33:00;73080.44;;;-145.00;43.11
45345;BME280;31078;48.304;11.896;2023-08-08T08:35:29;73045.03;;;-145.00;42.91
45345;BME280;31078;48.304;11.896;2023-08-08T08:37:55;72930.53;;;-145.00;42.38
45345;BME280;31078;48.304;11.896;2023-08-08T08:40:22;72930.53;;;-145.00;41.26
45345;BME280;31078;48.304;11.896;2023-08-08T08:42:50;72901.38;;;-145.00;41.00
45345;BME280;31078;48.304;11.896;2023-08-08T08:45:19;72913.88;;;-145.00;40.16
45345;BME280;31078;48.304;11.896;2023-08-08T08:47:47;72963.84;;;-145.00;41.52
45345;BME280;31078;48.304;11.896;2023-08-08T08:50:15;72947.19;;;-145.00;40.58
45345;BME280;31078;48.304;11.896;2023-08-08T08:52:42;72905.56;;;-145.00;41.19
45345;BME280;31078;48.304;11.896;2023-08-08T08:55:09;72872.25;;;-145.00;41.43
45345;BME280;31078;48.304;11.896;2023-08-08T08:57:36;72822.28;;;-145.00;39.99
45345;BME280;31078;48.304;11.896;2023-08-08T09:00:03;72876.41;;;-145.00;40.25
45345;BME280;31078;48.304;11.896;2023-08-08T09:02:31;72951.34;;;-145.00;41.76
45345;BME280;31078;48.304;11.896;2023-08-08T09:04:58;72943.03;;;-145.00;41.38
45345;BME280;31078;48.304;11.896;2023-08-08T09:07:29;72926.38;;;-145.00;42.38
45345;BME280;31078;48.304;11.896;2023-08-08T09:09:58;72945.09;;;-145.00;41.82
45345;BME280;31078;48.304;11.896;2023-08-08T09:12:24;72972.16;;;-145.00;40.06
45345;BME280;31078;48.304;11.896;2023-08-08T09:14:54;72963.84;;;-145.00;39.47
45345;BME280;31078;48.304;11.896;2023-08-08T09:17:21;72918.03;;;-145.00;39.37
45345;BME280;31078;48.304;11.896;2023-08-08T09:19:47;72838.94;;;-145.00;39.57
45345;BME280;31078;48.304;11.896;2023-08-08T09:22:14;72832.69;;;-145.00;39.10
45345;BME280;31078;48.304;11.896;2023-08-08T09:24:42;72872.25;;;-145.00;38.95
45345;BME280;31078;48.304;11.896;2023-08-08T09:27:09;72893.06;;;-145.00;40.35
45345;BME280;31078;48.304;11.896;2023-08-08T09:29:36;72888.91;;;-145.00;38.66
45345;BME280;31078;48.304;11.896;2023-08-08T09:32:03;72874.31;;;-145.00;39.94
45345;BME280;31078;48.304;11.896;2023-08-08T09:34:30;72780.66;;;-145.00;38.58
45345;BME280;31078;48.304;11.896;2023-08-08T09:36:57;72772.31;;;-145.00;38.15
45345;BME280;31078;48.304;11.896;2023-08-08T09:39:23;72739.00;;;-145.00;37.97
45345;BME280;31078;48.304;11.896;2023-08-08T09:41:51;72751.50;;;-145.00;37.64
45345;BME280;31078;48.304;11.896;2023-08-08T09:44:18;72813.94;;;-145.00;38.78
45345;BME280;31078;48.304;11.896;2023-08-08T09:46:44;72836.84;;;-145.00;39.42
45345;BME280;31078;48.304;11.896;2023-08-08T09:49:11;72811.88;;;-145.00;39.97
45345;BME280;31078;48.304;11.896;2023-08-08T09:51:38;72768.16;;;-145.00;38.62
45345;BME280;31078;48.304;11.896;2023-08-08T09:54:05;72809.78;;;-145.00;39.28
45345;BME280;31078;48.304;11.896;2023-08-08T09:56:33;72809.78;;;-145.00;39.25
45345;BME280;31078;48.304;11.896;2023-08-08T09:59:02;72830.59;;;-145.00;39.72
45345;BME280;31078;48.304;11.896;2023-08-08T10:01:31;72755.66;;;-145.00;39.01
45345;BME280;31078;48.304;11.896;2023-08-08T10:03:57;72826.44;;;-145.00;38.10
45345;BME280;31078;48.304;11.896;2023-08-08T10:06:26;72853.50;;;-145.00;38.53
45345;BME280;31078;48.304;11.896;2023-08-08T10:08:52;72826.44;;;-145.00;39.48
45345;BME280;31078;48.304;11.896;2023-08-08T10:11:20;72816.03;;;-145.00;39.89
45345;BME280;31078;48.304;11.896;2023-08-08T10:13:50;72741.09;;;-145.00;40.24
45345;BME280;31078;48.304;11.896;2023-08-08T10:16:18;72730.69;;;-145.00;38.24
45345;BME280;31078;48.304;11.896;2023-08-08T10:18:44;72722.34;;;-145.00;38.47
45345;BME280;31078;48.304;11.896;2023-08-08T10:21:12;72707.78;;;-145.00;36.99
45345;BME280;31078;48.304;11.896;2023-08-08T10:23:39;72709.88;;;-145.00;36.88
45345;BME280;31078;48.304;11.896;2023-08-08T10:26:17;72682.81;;;-145.00;37.01
45345;BME280;31078;48.304;11.896;2023-08-08T10:28:52;72739.00;;;-145.00;38.15
45345;BME280;31078;48.304;11.896;2023-08-08T10:31:20;72774.41;;;-145.00;37.75
45345;BME280;31078;48.304;11.896;2023-08-08T10:33:47;72722.34;;;-145.00;36.48
45345;BME280;31078;48.304;11.896;2023-08-08T10:36:15;72697.38;;;-145.00;36.91
45345;BME280;31078;48.304;11.896;2023-08-08T10:38:43;72664.06;;;-145.00;36.01
45345;BME280;31078;48.304;11.896;2023-08-08T10:41:15;72718.19;;;-145.00;36.42
45345;BME280;31078;48.304;11.896;2023-08-08T10:43:49;72709.88;;;-145.00;36.54
45345;BME280;31078;48.304;11.896;2023-08-08T10:46:25;72676.56;;;-145.00;35.97
45345;BME280;31078;48.304;11.896;2023-08-08T10:48:52;72693.22;;;-145.00;35.14
45345;BME280;31078;48.304;11.896;2023-08-08T10:51:19;72743.19;;;-145.00;36.67
45345;BME280;31078;48.304;11.896;2023-08-08T10:53:46;72734.84;;;-145.00;36.12
45345;BME280;31078;48.304;11.896;2023-08-08T10:56:13;72749.41;;;-145.00;35.90
45345;BME280;31078;48.304;11.896;2023-08-08T10:58:42;72716.13;;;-145.00;36.39
45345;BME280;31078;48.304;11.896;2023-08-08T11:01:13;72770.25;;;-145.00;37.34
45345;BME280;31078;48.304;11.896;2023-08-08T11:03:43;72772.31;;;-145.00;36.64
45345;BME280;31078;48.304;11.896;2023-08-08T11:06:10;72809.78;;;-145.00;36.57
45345;BME280;31078;48.304;11.896;2023-08-08T11:08:37;72813.94;;;-145.00;36.84
45345;BME280;31078;48.304;11.896;2023-08-08T11:11:04;72784.81;;;-145.00;37.38
45345;BME280;31078;48.304;11.896;2023-08-08T11:13:31;72759.81;;;-145.00;36.37
45345;BME280;31078;48.304;11.896;2023-08-08T11:15:57;72801.47;;;-145.00;37.13
45345;BME280;31078;48.304;11.896;2023-08-08T11:18:27;72801.47;;;-145.00;37.04
45345;BME280;31078;48.304;11.896;2023-08-08T11:20:55;72780.66;;;-145.00;38.23
45345;BME280;31078;48.304;11.896;2023-08-08T11:23:22;72739.00;;;-145.00;38.04
45345;BME280;31078;48.304;11.896;2023-08-08T11:25:49;72734.84;;;-145.00;36.37
45345;BME280;31078;48.304;11.896;2023-08-08T11:28:16;72741.09;;;-145.00;36.25
45345;BME280;31078;48.304;11.896;2023-08-08T11:30:43;72745.25;;;-145.00;36.37
45345;BME280;31078;48.304;11.896;2023-08-08T11:33:13;72755.66;;;-145.00;36.92
45345;BME280;31078;48.304;11.896;2023-08-08T11:35:43;72726.53;;;-145.00;36.55
45345;BME280;31078;48.304;11.896;2023-08-08T11:38:13;72668.22;;;-145.00;36.72
45345;BME280;31078;48.304;11.896;2023-08-08T11:40:40;72655.75;;;-145.00;35.62
45345;BME280;31078;48.304;11.896;2023-08-08T11:43:07;72672.41;;;-145.00;35.36
45345;BME280;31078;48.304;11.896;2023-08-08T11:45:34;72728.59;;;-145.00;35.72
45345;BME280;31078;48.304;11.896;2023-08-08T11:48:02;72703.63;;;-145.00;35.07
45345;BME280;31078;48.304;11.896;2023-08-08T11:50:30;72664.06;;;-145.00;36.25
45345;BME280;31078;48.304;11.896;2023-08-08T11:52:56;72639.09;;;-145.00;34.94
45345;BME280;31078;48.304;11.896;2023-08-08T11:55:28;72637.00;;;-145.00;35.15
45345;BME280;31078;48.304;11.896;2023-08-08T11:57:56;72653.66;;;-145.00;35.46
45345;BME280;31078;48.304;11.896;2023-08-08T12:00:27;72634.94;;;-145.00;34.85
45345;BME280;31078;48.304;11.896;2023-08-08T12:02:55;72618.28;;;-145.00;34.60
45345;BME280;31078;48.304;11.896;2023-08-08T12:05:22;72620.34;;;-145.00;36.07
45345;BME280;31078;48.304;11.896;2023-08-08T12:07:49;72628.69;;;-145.00;35.54
45345;BME280;31078;48.304;11.896;2023-08-08T12:10:17;72647.41;;;-145.00;35.63
45345;BME280;31078;48.304;11.896;2023-08-08T12:12:45;72639.09;;;-145.00;35.27
45345;BME280;31078;48.304;11.896;2023-08-08T12:15:12;72599.53;;;-145.00;35.08
45345;BME280;31078;48.304;11.896;2023-08-08T12:17:39;72589.13;;;-145.00;35.13
45345;BME280;31078;48.304;11.896;2023-08-08T12:20:07;72582.88;;;-145.00;35.53
45345;BME280;31078;48.304;11.896;2023-08-08T12:22:34;72572.47;;;-145.00;34.14
45345;BME280;31078;48.304;11.896;2023-08-08T12:25:01;72580.81;;;-145.00;34.78
45345;BME280;31078;48.304;11.896;2023-08-08T12:27:28;72605.78;;;-145.00;33.78
45345;BME280;31078;48.304;11.896;2023-08-08T12:29:56;72626.59;;;-145.00;33.83